createdAt,value
2022-10-11T00:00:58.296Z,101466.19
2022-10-11T00:05:01.250Z,101464.16
2022-10-11T00:09:04.153Z,101459.00
2022-10-11T00:13:08.943Z,101462.75
2022-10-11T00:17:11.805Z,101465.28
2022-10-11T00:21:16.904Z,101471.91
2022-10-11T00:25:20.298Z,101470.22
2022-10-11T00:29:24.569Z,101472.59
2022-10-11T00:33:27.610Z,101474.31
2022-10-11T00:37:30.279Z,101482.69
2022-10-11T00:41:33.198Z,101486.22
2022-10-11T00:46:01.904Z,101477.84
2022-10-11T00:50:05.858Z,101477.34
2022-10-11T00:54:12.483Z,101490.19
2022-10-11T00:58:15.441Z,101492.53
2022-10-11T01:02:21.652Z,101490.09
2022-10-11T01:06:24.856Z,101489.69
2022-10-11T01:10:28.732Z,101488.00
2022-10-11T01:14:51.389Z,101496.50
2022-10-11T01:19:09.905Z,101497.72
2022-10-11T01:23:45.106Z,101495.53
2022-10-11T01:28:04.577Z,101493.84
2022-10-11T01:32:16.426Z,101493.44
2022-10-11T01:36:32.827Z,101494.78
2022-10-11T01:40:40.863Z,101492.81
2022-10-11T01:50:34.805Z,101498.06
2022-10-11T01:55:08.531Z,101496.34
2022-10-11T01:59:21.619Z,101491.94
2022-10-11T02:03:34.479Z,101496.69
2022-10-11T02:07:45.690Z,101494.22
2022-10-11T02:11:48.488Z,101491.09
2022-10-11T02:15:52.521Z,101499.50
2022-10-11T02:19:59.755Z,101505.88
2022-10-11T02:24:10.686Z,101500.75
2022-10-11T02:28:18.517Z,101491.97
2022-10-11T02:32:22.610Z,101491.28
2022-10-11T02:36:31.406Z,101496.06
2022-10-11T02:40:39.062Z,101492.22
2022-10-11T02:44:45.467Z,101503.97
2022-10-11T02:48:49.259Z,101511.78
2022-10-11T02:52:52.131Z,101511.78
2022-10-11T02:56:56.175Z,101519.84
2022-10-11T03:00:58.956Z,101514.13
2022-10-11T03:05:01.826Z,101522.34
2022-10-11T03:09:05.339Z,101518.16
2022-10-11T03:13:09.599Z,101530.09
2022-10-11T03:17:35.129Z,101536.91
2022-10-11T03:21:35.971Z,101529.09
2022-10-11T03:25:41.860Z,101533.44
2022-10-11T03:29:46.061Z,101525.44
2022-10-11T03:33:49.019Z,101529.19
2022-10-11T03:37:51.797Z,101529.25
2022-10-11T03:41:54.614Z,101543.88
2022-10-11T03:45:58.815Z,101543.44
2022-10-11T03:50:01.584Z,101536.44
2022-10-11T03:54:04.643Z,101541.47
2022-10-11T03:58:07.464Z,101547.03
2022-10-11T04:02:11.717Z,101550.69
2022-10-11T04:06:14.569Z,101551.22
2022-10-11T04:10:17.821Z,101549.03
2022-10-11T04:14:20.555Z,101554.03
2022-10-11T04:18:24.667Z,101557.06
2022-10-11T04:22:27.371Z,101557.44
2022-10-11T04:26:30.264Z,101562.84
2022-10-11T04:30:33.001Z,101566.88
2022-10-11T04:34:37.129Z,101565.38
2022-10-11T04:38:39.831Z,101573.09
2022-10-11T04:42:42.594Z,101568.88
2022-10-11T04:46:45.460Z,101572.34
2022-10-11T04:50:49.555Z,101572.06
2022-10-11T04:54:52.274Z,101573.38
2022-10-11T04:58:54.999Z,101571.53
2022-10-11T05:02:57.770Z,101583.50
2022-10-11T05:07:01.896Z,101576.38
2022-10-11T05:11:06.872Z,101577.78
2022-10-11T05:15:10.912Z,101583.66
2022-10-11T05:19:13.641Z,101578.41
2022-10-11T05:23:17.839Z,101576.66
2022-10-11T05:27:22.732Z,101587.28
2022-10-11T05:31:25.726Z,101589.72
2022-10-11T05:35:28.478Z,101597.97
2022-10-11T05:39:32.875Z,101602.41
2022-10-11T05:43:36.532Z,101605.47
2022-10-11T05:47:39.481Z,101608.09
2022-10-11T05:51:42.554Z,101619.78
2022-10-11T05:55:46.626Z,101619.69
2022-10-11T05:59:49.536Z,101621.44
2022-10-11T06:03:52.727Z,101616.06
2022-10-11T06:07:55.585Z,101619.50
2022-10-11T06:11:59.780Z,101618.69
2022-10-11T06:16:04.946Z,101624.81
2022-10-11T06:20:09.156Z,101626.78
2022-10-11T06:24:12.412Z,101629.78
2022-10-11T06:28:16.513Z,101634.56
2022-10-11T06:32:19.445Z,101646.06
2022-10-11T06:36:22.876Z,101653.19
2022-10-11T06:40:25.767Z,101649.59
2022-10-11T06:44:30.486Z,101654.13
2022-10-11T06:48:33.217Z,101661.03
2022-10-11T06:52:36.081Z,101662.75
2022-10-11T06:56:39.163Z,101674.53
2022-10-11T07:00:43.433Z,101672.56
2022-10-11T07:04:46.418Z,101683.63
2022-10-11T07:08:49.666Z,101692.06
2022-10-11T07:12:52.410Z,101701.41
2022-10-11T07:16:57.407Z,101710.75
2022-10-11T07:21:03.358Z,101713.75
2022-10-11T07:25:07.020Z,101721.00
2022-10-11T07:29:11.642Z,101720.44
2022-10-11T07:33:15.972Z,101731.72
2022-10-11T07:37:18.858Z,101719.53
2022-10-11T07:41:21.930Z,101720.28
2022-10-11T07:45:24.643Z,101712.34
2022-10-11T07:49:28.922Z,101674.09
2022-10-11T07:53:31.659Z,101654.94
2022-10-11T07:57:34.477Z,101635.56
2022-10-11T08:01:39.147Z,101636.06
2022-10-11T08:05:43.314Z,101642.03
2022-10-11T08:09:46.044Z,101645.22
2022-10-11T08:13:48.769Z,101649.31
2022-10-11T08:17:51.630Z,101648.94
2022-10-11T08:21:55.922Z,101646.91
2022-10-11T08:25:59.373Z,101640.38
2022-10-11T08:30:02.381Z,101656.56
2022-10-11T08:34:05.466Z,101653.53
2022-10-11T08:38:09.720Z,101658.72
2022-10-11T08:42:16.655Z,101659.94
2022-10-11T08:46:25.067Z,101666.69
2022-10-11T08:50:28.030Z,101656.22
2022-10-11T08:54:39.539Z,101671.75
2022-10-11T08:58:49.313Z,101666.09
2022-10-11T09:03:08.504Z,101666.16
2022-10-11T09:07:21.991Z,101663.19
2022-10-11T09:11:39.874Z,101667.81
2022-10-11T09:15:51.772Z,101663.94
2022-10-11T09:20:19.921Z,101666.91
2022-10-11T09:24:37.992Z,101659.25
2022-10-11T09:28:51.570Z,101663.81
2022-10-11T09:33:04.408Z,101675.97
2022-10-11T09:37:18.991Z,101678.56
2022-10-11T09:41:28.089Z,101672.56
2022-10-11T09:45:32.267Z,101663.44
2022-10-11T09:49:40.392Z,101668.13
2022-10-11T09:53:59.073Z,101670.41
2022-10-11T09:58:02.752Z,101677.75
2022-10-11T10:02:24.593Z,101677.25
2022-10-11T10:06:28.513Z,101674.25
2022-10-11T10:10:35.472Z,101674.34
2022-10-11T10:14:38.466Z,101677.69
2022-10-11T10:18:50.574Z,101677.28
2022-10-11T10:22:53.593Z,101683.78
2022-10-11T10:27:18.159Z,101685.00
2022-10-11T10:31:23.776Z,101677.06
2022-10-11T10:35:42.101Z,101677.09
2022-10-11T10:39:51.230Z,101680.00
2022-10-11T10:43:57.536Z,101676.47
2022-10-11T10:48:15.240Z,101668.56
2022-10-11T10:52:44.115Z,101668.28
2022-10-11T10:56:53.282Z,101667.78
2022-10-11T11:01:02.058Z,101674.41
2022-10-11T11:05:24.162Z,101670.59
2022-10-11T11:09:40.905Z,101673.69
2022-10-11T11:13:50.996Z,101680.94
2022-10-11T11:18:05.574Z,101675.81
2022-10-11T11:22:17.221Z,101673.84
2022-10-11T11:26:31.473Z,101664.47
2022-10-11T11:30:41.600Z,101664.03
2022-10-11T11:34:49.037Z,101654.97
2022-10-11T11:38:57.862Z,101656.31
2022-10-11T11:43:05.944Z,101649.16
2022-10-11T11:47:18.010Z,101639.34
2022-10-11T11:51:30.456Z,101643.03
2022-10-11T11:55:40.823Z,101631.22
2022-10-11T11:59:52.659Z,101636.84
2022-10-11T12:03:58.486Z,101625.91
2022-10-11T12:08:04.305Z,101633.50
2022-10-11T12:12:09.150Z,101627.59
2022-10-11T12:16:15.680Z,101619.00
2022-10-11T12:20:25.347Z,101608.91
2022-10-11T12:24:55.425Z,101608.47
2022-10-11T12:29:05.423Z,101603.84
2022-10-11T12:33:16.223Z,101595.06
2022-10-11T12:37:52.074Z,101591.53
2022-10-11T12:42:08.017Z,101602.13
2022-10-11T12:46:41.231Z,101596.22
2022-10-11T12:51:02.899Z,101600.09
2022-10-11T12:55:24.510Z,101594.25
2022-10-11T12:59:27.477Z,101584.00
2022-10-11T13:03:32.973Z,101583.41
2022-10-11T13:07:37.527Z,101578.88
2022-10-11T13:11:46.027Z,101597.25
2022-10-11T13:15:49.800Z,101589.78
2022-10-11T13:20:00.583Z,101576.59
2022-10-11T13:24:12.043Z,101567.50
2022-10-11T13:28:16.780Z,101567.41
2022-10-11T13:32:23.858Z,101568.75
2022-10-11T13:36:28.373Z,101567.66
2022-10-11T13:40:33.284Z,101569.41
2022-10-11T13:44:38.384Z,101566.56
2022-10-11T13:48:41.919Z,101572.81
2022-10-11T13:52:57.046Z,101568.66
2022-10-11T13:57:04.993Z,101566.97
2022-10-11T14:01:21.418Z,101567.06
2022-10-11T14:05:29.482Z,101571.94
2022-10-11T14:09:35.018Z,101566.50
2022-10-11T14:13:41.829Z,101555.59
2022-10-11T14:17:46.528Z,101556.19
2022-10-11T14:21:51.561Z,101551.84
2022-10-11T14:25:54.385Z,101555.25
2022-10-11T14:30:25.221Z,101555.69
2022-10-11T14:34:23.388Z,101551.75
2022-10-11T14:38:26.256Z,101550.41
2022-10-11T14:42:29.214Z,101550.06
2022-10-11T14:46:33.521Z,101554.75
2022-10-11T14:50:41.484Z,101556.72
2022-10-11T14:54:44.393Z,101563.38
2022-10-11T14:58:47.169Z,101555.59
2022-10-11T15:02:52.810Z,101544.81
2022-10-11T15:06:57.068Z,101546.16
2022-10-11T15:10:59.781Z,101539.00
2022-10-11T15:15:14.719Z,101548.00
2022-10-11T15:19:22.197Z,101535.72
2022-10-11T15:23:25.156Z,101531.66
2022-10-11T15:27:28.890Z,101533.53
2022-10-11T15:31:33.171Z,101531.03
2022-10-11T15:35:36.086Z,101518.03
2022-10-11T15:39:39.033Z,101525.72
2022-10-11T15:43:42.572Z,101519.00
2022-10-11T15:47:47.245Z,101522.38
2022-10-11T15:51:50.050Z,101521.41
2022-10-11T15:55:55.578Z,101515.22
2022-10-11T15:59:58.478Z,101516.66
2022-10-11T16:04:02.695Z,101504.53
2022-10-11T16:08:05.775Z,101503.97
2022-10-11T16:12:08.627Z,101489.09
2022-10-11T16:16:13.048Z,101502.88
2022-10-11T16:20:22.262Z,101507.00
2022-10-11T16:24:25.200Z,101495.00
2022-10-11T16:28:28.971Z,101500.97
2022-10-11T16:32:33.606Z,101494.41
2022-10-11T16:36:40.904Z,101494.97
2022-10-11T16:40:44.704Z,101495.84
2022-10-11T16:44:47.553Z,101495.22
2022-10-11T16:48:50.723Z,101488.84
2022-10-11T16:52:55.879Z,101490.03
2022-10-11T16:56:59.489Z,101498.69
2022-10-11T17:01:02.726Z,101488.94
2022-10-11T17:05:06.450Z,101496.03
2022-10-11T17:09:11.142Z,101496.47
2022-10-11T17:13:14.109Z,101503.97
2022-10-11T17:17:18.288Z,101502.47
2022-10-11T17:21:22.829Z,101507.31
2022-10-11T17:25:28.234Z,101509.41
2022-10-11T17:29:31.033Z,101516.00
2022-10-11T17:33:35.112Z,101514.13
2022-10-11T17:37:37.885Z,101505.50
2022-10-11T17:41:43.247Z,101514.69
2022-10-11T17:45:56.054Z,101531.72
2022-10-11T17:49:58.774Z,101520.34
2022-10-11T17:54:01.574Z,101529.00
2022-10-11T17:58:05.701Z,101535.59
2022-10-11T18:02:08.563Z,101537.00
2022-10-11T18:06:13.494Z,101538.13
2022-10-11T18:10:16.426Z,101543.44
2022-10-11T18:14:20.840Z,101536.47
2022-10-11T18:18:23.742Z,101535.84
2022-10-11T18:22:27.165Z,101539.28
2022-10-11T18:26:30.989Z,101542.22
2022-10-11T18:30:35.231Z,101549.56
2022-10-11T18:34:39.080Z,101549.91
2022-10-11T18:38:46.422Z,101561.19
2022-10-11T18:42:49.333Z,101559.13
2022-10-11T18:46:54.085Z,101554.50
2022-10-11T18:51:03.343Z,101556.06
2022-10-11T18:55:07.271Z,101557.09
2022-10-11T18:59:10.925Z,101550.13
2022-10-11T19:03:15.047Z,101558.09
2022-10-11T19:07:17.810Z,101548.56
2022-10-11T19:11:22.572Z,101551.81
2022-10-11T19:15:28.722Z,101557.63
2022-10-11T19:19:33.789Z,101562.38
2022-10-11T19:23:39.504Z,101550.28
2022-10-11T19:27:42.221Z,101563.56
2022-10-11T19:31:47.647Z,101551.31
2022-10-11T19:35:55.882Z,101551.97
2022-10-11T19:39:58.990Z,101565.56
2022-10-11T19:44:01.721Z,101563.03
2022-10-11T19:48:04.633Z,101559.75
2022-10-11T19:52:09.509Z,101557.00
2022-10-11T19:56:14.378Z,101563.63
2022-10-11T20:00:17.984Z,101554.56
2022-10-11T20:08:48.214Z,101557.28
2022-10-11T20:12:52.982Z,101554.00
2022-10-11T20:16:55.714Z,101548.97
2022-10-11T20:21:00.292Z,101564.75
2022-10-11T20:25:04.513Z,101559.78
2022-10-11T20:29:08.075Z,101559.25
2022-10-11T20:33:10.820Z,101562.19
2022-10-11T20:37:14.066Z,101560.97
2022-10-11T20:52:09.204Z,101553.66
2022-10-11T20:56:13.955Z,101550.38
2022-10-11T21:00:17.198Z,101557.94
2022-10-11T21:04:21.387Z,101547.88
2022-10-11T21:08:25.687Z,101547.78
2022-10-11T21:12:28.580Z,101536.03
2022-10-11T21:16:32.214Z,101539.28
2022-10-11T21:20:38.834Z,101534.47
2022-10-11T21:24:42.923Z,101535.41
2022-10-11T21:28:46.495Z,101531.63
2022-10-11T21:32:50.802Z,101525.88
2022-10-11T21:36:53.562Z,101530.13
2022-10-11T21:40:57.762Z,101538.38
2022-10-11T21:45:00.509Z,101544.41
2022-10-11T21:49:03.555Z,101545.13
2022-10-11T21:53:06.321Z,101543.97
2022-10-11T21:57:10.555Z,101539.47
2022-10-11T22:01:16.369Z,101538.25
2022-10-11T22:05:19.280Z,101543.44
2022-10-11T22:09:22.267Z,101539.72
2022-10-11T22:13:27.223Z,101535.28
2022-10-11T22:17:30.080Z,101530.66
2022-10-11T22:21:33.090Z,101535.06
2022-10-11T22:25:35.957Z,101526.59
2022-10-11T22:29:40.193Z,101525.69
2022-10-11T22:33:43.052Z,101529.50
2022-10-11T22:37:45.810Z,101531.19
2022-10-11T22:41:48.548Z,101530.09
2022-10-11T22:45:52.618Z,101532.13
2022-10-11T22:49:55.475Z,101529.09
2022-10-11T22:53:58.385Z,101533.31
2022-10-11T22:58:01.291Z,101525.50
2022-10-11T23:02:05.533Z,101525.63
2022-10-11T23:06:08.695Z,101524.53
2022-10-11T23:10:11.568Z,101516.25
2022-10-11T23:14:14.476Z,101511.31
2022-10-11T23:18:18.917Z,101508.78
2022-10-11T23:22:21.700Z,101504.69
2022-10-11T23:26:24.420Z,101510.72
2022-10-11T23:30:27.368Z,101514.75
2022-10-11T23:34:31.443Z,101510.72
2022-10-11T23:38:34.385Z,101517.22
2022-10-11T23:42:37.133Z,101513.69
2022-10-11T23:46:39.993Z,101510.03
2022-10-11T23:50:44.833Z,101508.94
2022-10-11T23:54:47.502Z,101505.41
2022-10-11T23:58:50.321Z,101507.59
